Buoy 43533

sailwx.info

Track history (hours):
 
Tides and Currents Weather Stations Pressure Air Temp Water Temp Dewpoint Dewpoint Depression Visibility Wind Speed Wind Dir Waves Ship Positions

Drifting buoy 43533

Last reported at 2014-Sep-21 05:00 UTC. Time now 2014-Sep-21 06:12 UTC.
Position N 16°00' W 103°33'.

Length 24 m.

Type: Fishing. MMSI: 412466549.

Water temperature 28.4 ° C

Date/timePositionNaut miles runAvg speedWind from/ knotsBaromVisibWave heightAir tempDewpointWater temp
2014-Sep-21 05:00N 16°00' W 103°33'1 0.8 28.4
2014-Sep-21 04:00N 15°59' W 103°33'1 0.8 28.4
2014-Sep-21 03:00N 15°59' W 103°32'0 0.3 28.4
2014-Sep-21 02:00N 15°59' W 103°32'2 1.8 28.5
2014-Sep-21 01:00N 15°57' W 103°31'1 0.8 28.6
2014-Sep-21 00:00N 15°56' W 103°31'3 2.7 28.6
2014-Sep-20 23:00N 15°55' W 103°28'0 0.0 28.7
2014-Sep-20 22:00N 15°55' W 103°28'0 0.0 28.8
2014-Sep-20 21:00N 15°55' W 103°28'0 0.1 28.7
2014-Sep-20 20:00N 15°55' W 103°28'3 1.1 28.7
2014-Sep-20 17:00N 15°53' W 103°26'0 0.0 28.3
2014-Sep-20 16:00N 15°53' W 103°26'3 0.6 28.2
2014-Sep-20 11:00N 15°51' W 103°24'1 0.7 28.2
2014-Sep-20 10:00N 15°50' W 103°24'1 0.8 28.2
2014-Sep-20 09:00N 15°50' W 103°24'1 0.2 28.3
2014-Sep-20 05:00N 15°49' W 103°24'0 0.2 28.4
2014-Sep-20 04:00N 15°48' W 103°24'2 1.7 28.5
2014-Sep-20 03:00N 15°47' W 103°25'0 0.0 28.5
2014-Sep-20 02:00N 15°47' W 103°25'2 1.7 28.6
2014-Sep-20 01:00N 15°45' W 103°24'0 0.0 28.8
2014-Sep-19 23:00N 15°45' W 103°24'3 2.8 29.0
2014-Sep-19 22:00N 15°43' W 103°25'0 0.1 29.1
2014-Sep-19 21:00N 15°43' W 103°26'4 2.2 29.0
2014-Sep-19 19:00N 15°38' W 103°26'1 0.4 28.7
2014-Sep-19 17:00N 15°37' W 103°27'0 0.0 28.4
2014-Sep-19 16:00N 15°37' W 103°27'5 4.7 28.2
2014-Sep-19 15:00N 15°33' W 103°26'1 0.4 28.1
2014-Sep-19 13:00N 15°32' W 103°26'2 1.8 28.1
2014-Sep-19 12:00N 15°30' W 103°25'1 1.4 28.1
2014-Sep-19 11:00N 15°29' W 103°24'0 0.2 28.1
2014-Sep-19 10:00N 15°29' W 103°24'3 2.9 28.1
2014-Sep-19 09:00N 15°27' W 103°23'5 5.0 28.1
2014-Sep-19 08:00N 15°24' W 103°19'0 0.0 28.1
2014-Sep-19 04:00N 15°24' W 103°19'1 1.4 28.1
2014-Sep-19 03:00N 15°23' W 103°19'1 0.3 28.1
2014-Sep-19 01:00N 15°22' W 103°19'1 0.4 28.2
2014-Sep-18 23:00N 15°21' W 103°19'2 0.8 28.3
2014-Sep-18 21:00N 15°20' W 103°18'2 0.9 28.3
2014-Sep-18 19:00N 15°18' W 103°19'2 0.5 28.2
2014-Sep-18 16:00N 15°17' W 103°20'1 1.0 28.1
2014-Sep-18 15:00N 15°18' W 103°19'1 0.6 28.1
2014-Sep-18 13:00N 15°17' W 103°20'2 1.8 28.0
2014-Sep-18 12:00N 15°15' W 103°21'0 0.0 28.0
2014-Sep-18 11:00N 15°15' W 103°21'1 1.1 28.0
2014-Sep-18 10:00N 15°15' W 103°22'0 0.0 28.1
2014-Sep-18 09:00N 15°15' W 103°22'3 2.6 28.1
2014-Sep-18 08:00N 15°12' W 103°23'1 0.3 28.1
2014-Sep-18 03:00N 15°12' W 103°25'0 0.4 28.1
2014-Sep-18 02:00N 15°11' W 103°25'3 1.5 28.1
2014-Sep-18 00:00N 15°09' W 103°26'1 1.5 28.1
2014-Sep-17 23:00N 15°08' W 103°28'0 0.0 28.1
2014-Sep-17 22:00N 15°08' W 103°28'5 1.7 28.1
2014-Sep-17 19:00N 15°03' W 103°30'1 0.4 28.2
2014-Sep-17 17:00N 15°02' W 103°30'0 0.3 28.2
2014-Sep-17 16:00N 15°02' W 103°30'3 1.0 28.2
2014-Sep-17 13:00N 14°60' W 103°31'1 0.5 28.2
2014-Sep-17 12:00N 14°59' W 103°31'3 1.6 28.2
2014-Sep-17 10:00N 14°56' W 103°31'3 1.7 28.2
2014-Sep-17 08:00N 14°53' W 103°31'2 0.3 28.2
2014-Sep-17 03:00N 14°51' W 103°31'2 0.8 28.4
2014-Sep-17 01:00N 14°50' W 103°32'2 0.6 28.5
2014-Sep-16 22:00N 14°48' W 103°32'0 0.0 28.4
2014-Sep-16 21:00N 14°48' W 103°32'1 1.4 28.4
2014-Sep-16 20:00N 14°46' W 103°32'0 0.0 28.5
2014-Sep-16 19:00N 14°46' W 103°32'2 0.8 28.4
2014-Sep-16 17:00N 14°45' W 103°32'0 0.4 28.2
2014-Sep-16 16:00N 14°45' W 103°32'0 0.0 28.2
2014-Sep-16 15:00N 14°45' W 103°32'3 0.7 28.1
2014-Sep-16 11:00N 14°43' W 103°34'2 1.6 28.1
2014-Sep-16 10:00N 14°42' W 103°36'3 1.7 28.1
2014-Sep-16 08:00N 14°40' W 103°39'4 4.1 28.2
2014-Sep-16 07:00N 14°42' W 103°35'5 2.5 28.2
2014-Sep-16 05:00N 14°40' W 103°39'2 1.2 28.2
2014-Sep-16 03:00N 14°39' W 103°42'0 0.0 28.3
2014-Sep-16 02:00N 14°39' W 103°42'1 0.6 28.3
2014-Sep-16 00:00N 14°38' W 103°43'2 1.0 28.3
2014-Sep-15 22:00N 14°37' W 103°45'4 1.8 28.5
2014-Sep-15 20:00N 14°36' W 103°48'2 0.5 28.3
2014-Sep-15 17:00N 14°34' W 103°49'0 0.0 28.2
2014-Sep-15 16:00N 14°34' W 103°49'2 2.4 28.1
2014-Sep-15 15:00N 14°33' W 103°51'0 0.2 28.1
2014-Sep-15 13:00N 14°33' W 103°51'1 1.1 28.1
2014-Sep-15 12:00N 14°33' W 103°53'0 0.1 -0.1
2014-Sep-15 11:00N 14°33' W 103°53'1 1.3 28.1
2014-Sep-15 10:00N 14°32' W 103°54'0 0.1 28.1
2014-Sep-15 09:00N 14°32' W 103°54'4 0.9 28.1
2014-Sep-15 04:00N 14°31' W 103°58'1 1.5 28.2
2014-Sep-15 03:00N 14°32' W 103°59'6 1.2 28.1
2014-Sep-14 22:00N 14°34' W 104°05'0 0.0 28.2
2014-Sep-14 21:00N 14°34' W 104°05'4 3.6 28.3
2014-Sep-14 20:00N 14°35' W 104°09'0 0.0 28.3
2014-Sep-14 17:00N 14°35' W 104°09'2 2.2 28.1
2014-Sep-14 16:00N 14°35' W 104°11'3 2.9 28.1
2014-Sep-14 15:00N 14°36' W 104°14'1 0.5 28.1
2014-Sep-14 13:00N 14°36' W 104°15'5 2.7 28.1
2014-Sep-14 11:00N 14°38' W 104°20'7 3.7 28.1
2014-Sep-14 09:00N 14°41' W 104°27'0 0.0 28.1
2014-Sep-14 04:00N 14°41' W 104°27'1 0.8 28.2
2014-Sep-14 03:00N 14°41' W 104°27'2 1.8 28.2
2014-Sep-14 02:00N 14°43' W 104°29'2 2.3 28.2
2014-Sep-14 01:00N 14°44' W 104°31'4 3.9 28.2
2014-Sep-14 00:00N 14°47' W 104°34'0 0.0 28.2
2014-Sep-13 22:00N 14°47' W 104°34'5 5.4 28.3
2014-Sep-13 21:00N 14°50' W 104°38'0 0.0 28.3
2014-Sep-13 20:00N 14°50' W 104°38'9 3.1 28.3
2014-Sep-13 17:00N 14°56' W 104°46'9 9.2 28.4
2014-Sep-13 16:00N 14°60' W 104°54'0 0.0 28.5
2014-Sep-13 15:00N 14°60' W 104°54'0 0.0 28.5
2014-Sep-13 14:00N 14°60' W 104°54'25 4.1 28.6
2014-Sep-13 08:00N 15°13' W 105°16'0 0.0 28.8
2014-Sep-13 04:00N 15°13' W 105°16'0 0.0 28.8
2014-Sep-13 01:00N 15°13' W 105°16'3 3.1 28.8
2014-Sep-13 00:00N 15°16' W 105°17'0 0.1 28.9
2014-Sep-12 23:00N 15°16' W 105°17'0 0.0 28.9
2014-Sep-12 22:00N 15°16' W 105°17'7 1.5 28.9
2014-Sep-12 17:00N 15°23' W 105°18'2 1.0 28.9
2014-Sep-12 15:00N 15°25' W 105°18'0 0.0 29.0
2014-Sep-12 14:00N 15°25' W 105°18'5 4.6 29.0
2014-Sep-12 13:00N 15°30' W 105°18'2 1.1 29.0
2014-Sep-12 11:00N 15°32' W 105°18'4 1.8 29.1
2014-Sep-12 09:00N 15°35' W 105°20'0 0.0 29.1
2014-Sep-12 07:00N 15°35' W 105°20'1 0.2 29.1
2014-Sep-12 04:00N 15°35' W 105°19'1 1.0 29.1
2014-Sep-12 03:00N 15°35' W 105°20'0 0.0 29.1
2014-Sep-12 02:00N 15°35' W 105°20'1 0.6 29.1
2014-Sep-12 01:00N 15°36' W 105°21'2 0.8 29.1
2014-Sep-11 23:00N 15°36' W 105°22'1 1.3 29.2
2014-Sep-11 22:00N 15°37' W 105°21'1 0.2 29.2
2014-Sep-11 17:00N 15°37' W 105°22'1 0.5 29.2
2014-Sep-11 15:00N 15°38' W 105°23'6 1.5 29.2
2014-Sep-11 11:00N 15°41' W 105°28'0 0.0 29.2
2014-Sep-11 10:00N 15°41' W 105°28'0 0.0 29.2
2014-Sep-11 09:00N 15°41' W 105°28'0 0.0 29.2
2014-Sep-11 08:00N 15°41' W 105°28'0 0.0 29.2
2014-Sep-11 05:00N 15°41' W 105°28'   29.3
Track history (hours):
 
Tides and Currents Weather Stations Pressure Air Temp Water Temp Dewpoint Dewpoint Depression Visibility Wind Speed Wind Dir Waves Ship Positions

Drifting buoy 43533

Last reported at 2014-Sep-21 05:00 UTC. Time now 2014-Sep-21 06:12 UTC.
Position N 16°00' W 103°33'.

Length 24 m.

Type: Fishing. MMSI: 412466549.

Water temperature 28.4 ° C

Date/timePositionNaut miles runAvg speedWind from/ knotsBaromVisibWave heightAir tempDewpointWater temp
2014-Sep-21 05:00N 16°00' W 103°33'1 0.8 28.4
2014-Sep-21 04:00N 15°59' W 103°33'1 0.8 28.4
2014-Sep-21 03:00N 15°59' W 103°32'0 0.3 28.4
2014-Sep-21 02:00N 15°59' W 103°32'2 1.8 28.5
2014-Sep-21 01:00N 15°57' W 103°31'1 0.8 28.6
2014-Sep-21 00:00N 15°56' W 103°31'3 2.7 28.6
2014-Sep-20 23:00N 15°55' W 103°28'0 0.0 28.7
2014-Sep-20 22:00N 15°55' W 103°28'0 0.0 28.8
2014-Sep-20 21:00N 15°55' W 103°28'0 0.1 28.7
2014-Sep-20 20:00N 15°55' W 103°28'3 1.1 28.7
2014-Sep-20 17:00N 15°53' W 103°26'0 0.0 28.3
2014-Sep-20 16:00N 15°53' W 103°26'3 0.6 28.2
2014-Sep-20 11:00N 15°51' W 103°24'1 0.7 28.2
2014-Sep-20 10:00N 15°50' W 103°24'1 0.8 28.2
2014-Sep-20 09:00N 15°50' W 103°24'1 0.2 28.3
2014-Sep-20 05:00N 15°49' W 103°24'0 0.2 28.4
2014-Sep-20 04:00N 15°48' W 103°24'2 1.7 28.5
2014-Sep-20 03:00N 15°47' W 103°25'0 0.0 28.5
2014-Sep-20 02:00N 15°47' W 103°25'2 1.7 28.6
2014-Sep-20 01:00N 15°45' W 103°24'0 0.0 28.8
2014-Sep-19 23:00N 15°45' W 103°24'3 2.8 29.0
2014-Sep-19 22:00N 15°43' W 103°25'0 0.1 29.1
2014-Sep-19 21:00N 15°43' W 103°26'4 2.2 29.0
2014-Sep-19 19:00N 15°38' W 103°26'1 0.4 28.7
2014-Sep-19 17:00N 15°37' W 103°27'0 0.0 28.4
2014-Sep-19 16:00N 15°37' W 103°27'5 4.7 28.2
2014-Sep-19 15:00N 15°33' W 103°26'1 0.4 28.1
2014-Sep-19 13:00N 15°32' W 103°26'2 1.8 28.1
2014-Sep-19 12:00N 15°30' W 103°25'1 1.4 28.1
2014-Sep-19 11:00N 15°29' W 103°24'0 0.2 28.1
2014-Sep-19 10:00N 15°29' W 103°24'3 2.9 28.1
2014-Sep-19 09:00N 15°27' W 103°23'5 5.0 28.1
2014-Sep-19 08:00N 15°24' W 103°19'0 0.0 28.1
2014-Sep-19 04:00N 15°24' W 103°19'1 1.4 28.1
2014-Sep-19 03:00N 15°23' W 103°19'1 0.3 28.1
2014-Sep-19 01:00N 15°22' W 103°19'1 0.4 28.2
2014-Sep-18 23:00N 15°21' W 103°19'2 0.8 28.3
2014-Sep-18 21:00N 15°20' W 103°18'2 0.9 28.3
2014-Sep-18 19:00N 15°18' W 103°19'2 0.5 28.2
2014-Sep-18 16:00N 15°17' W 103°20'1 1.0 28.1
2014-Sep-18 15:00N 15°18' W 103°19'1 0.6 28.1
2014-Sep-18 13:00N 15°17' W 103°20'2 1.8 28.0
2014-Sep-18 12:00N 15°15' W 103°21'0 0.0 28.0
2014-Sep-18 11:00N 15°15' W 103°21'1 1.1 28.0
2014-Sep-18 10:00N 15°15' W 103°22'0 0.0 28.1
2014-Sep-18 09:00N 15°15' W 103°22'3 2.6 28.1
2014-Sep-18 08:00N 15°12' W 103°23'1 0.3 28.1
2014-Sep-18 03:00N 15°12' W 103°25'0 0.4 28.1
2014-Sep-18 02:00N 15°11' W 103°25'3 1.5 28.1
2014-Sep-18 00:00N 15°09' W 103°26'1 1.5 28.1
2014-Sep-17 23:00N 15°08' W 103°28'0 0.0 28.1
2014-Sep-17 22:00N 15°08' W 103°28'5 1.7 28.1
2014-Sep-17 19:00N 15°03' W 103°30'1 0.4 28.2
2014-Sep-17 17:00N 15°02' W 103°30'0 0.3 28.2
2014-Sep-17 16:00N 15°02' W 103°30'3 1.0 28.2
2014-Sep-17 13:00N 14°60' W 103°31'1 0.5 28.2
2014-Sep-17 12:00N 14°59' W 103°31'3 1.6 28.2
2014-Sep-17 10:00N 14°56' W 103°31'3 1.7 28.2
2014-Sep-17 08:00N 14°53' W 103°31'2 0.3 28.2
2014-Sep-17 03:00N 14°51' W 103°31'2 0.8 28.4
2014-Sep-17 01:00N 14°50' W 103°32'2 0.6 28.5
2014-Sep-16 22:00N 14°48' W 103°32'0 0.0 28.4
2014-Sep-16 21:00N 14°48' W 103°32'1 1.4 28.4
2014-Sep-16 20:00N 14°46' W 103°32'0 0.0 28.5
2014-Sep-16 19:00N 14°46' W 103°32'2 0.8 28.4
2014-Sep-16 17:00N 14°45' W 103°32'0 0.4 28.2
2014-Sep-16 16:00N 14°45' W 103°32'0 0.0 28.2
2014-Sep-16 15:00N 14°45' W 103°32'3 0.7 28.1
2014-Sep-16 11:00N 14°43' W 103°34'2 1.6 28.1
2014-Sep-16 10:00N 14°42' W 103°36'3 1.7 28.1
2014-Sep-16 08:00N 14°40' W 103°39'4 4.1 28.2
2014-Sep-16 07:00N 14°42' W 103°35'5 2.5 28.2
2014-Sep-16 05:00N 14°40' W 103°39'2 1.2 28.2
2014-Sep-16 03:00N 14°39' W 103°42'0 0.0 28.3
2014-Sep-16 02:00N 14°39' W 103°42'1 0.6 28.3
2014-Sep-16 00:00N 14°38' W 103°43'2 1.0 28.3
2014-Sep-15 22:00N 14°37' W 103°45'4 1.8 28.5
2014-Sep-15 20:00N 14°36' W 103°48'2 0.5 28.3
2014-Sep-15 17:00N 14°34' W 103°49'0 0.0 28.2
2014-Sep-15 16:00N 14°34' W 103°49'2 2.4 28.1
2014-Sep-15 15:00N 14°33' W 103°51'0 0.2 28.1
2014-Sep-15 13:00N 14°33' W 103°51'1 1.1 28.1
2014-Sep-15 12:00N 14°33' W 103°53'0 0.1 -0.1
2014-Sep-15 11:00N 14°33' W 103°53'1 1.3 28.1
2014-Sep-15 10:00N 14°32' W 103°54'0 0.1 28.1
2014-Sep-15 09:00N 14°32' W 103°54'4 0.9 28.1
2014-Sep-15 04:00N 14°31' W 103°58'1 1.5 28.2
2014-Sep-15 03:00N 14°32' W 103°59'6 1.2 28.1
2014-Sep-14 22:00N 14°34' W 104°05'0 0.0 28.2
2014-Sep-14 21:00N 14°34' W 104°05'4 3.6 28.3
2014-Sep-14 20:00N 14°35' W 104°09'0 0.0 28.3
2014-Sep-14 17:00N 14°35' W 104°09'2 2.2 28.1
2014-Sep-14 16:00N 14°35' W 104°11'3 2.9 28.1
2014-Sep-14 15:00N 14°36' W 104°14'1 0.5 28.1
2014-Sep-14 13:00N 14°36' W 104°15'5 2.7 28.1
2014-Sep-14 11:00N 14°38' W 104°20'7 3.7 28.1
2014-Sep-14 09:00N 14°41' W 104°27'0 0.0 28.1
2014-Sep-14 04:00N 14°41' W 104°27'1 0.8 28.2
2014-Sep-14 03:00N 14°41' W 104°27'2 1.8 28.2
2014-Sep-14 02:00N 14°43' W 104°29'2 2.3 28.2
2014-Sep-14 01:00N 14°44' W 104°31'4 3.9 28.2
2014-Sep-14 00:00N 14°47' W 104°34'0 0.0 28.2
2014-Sep-13 22:00N 14°47' W 104°34'5 5.4 28.3
2014-Sep-13 21:00N 14°50' W 104°38'0 0.0 28.3
2014-Sep-13 20:00N 14°50' W 104°38'9 3.1 28.3
2014-Sep-13 17:00N 14°56' W 104°46'9 9.2 28.4
2014-Sep-13 16:00N 14°60' W 104°54'0 0.0 28.5
2014-Sep-13 15:00N 14°60' W 104°54'0 0.0 28.5
2014-Sep-13 14:00N 14°60' W 104°54'25 4.1 28.6
2014-Sep-13 08:00N 15°13' W 105°16'0 0.0 28.8
2014-Sep-13 04:00N 15°13' W 105°16'0 0.0 28.8
2014-Sep-13 01:00N 15°13' W 105°16'3 3.1 28.8
2014-Sep-13 00:00N 15°16' W 105°17'0 0.1 28.9
2014-Sep-12 23:00N 15°16' W 105°17'0 0.0 28.9
2014-Sep-12 22:00N 15°16' W 105°17'7 1.5 28.9
2014-Sep-12 17:00N 15°23' W 105°18'2 1.0 28.9
2014-Sep-12 15:00N 15°25' W 105°18'0 0.0 29.0
2014-Sep-12 14:00N 15°25' W 105°18'5 4.6 29.0
2014-Sep-12 13:00N 15°30' W 105°18'2 1.1 29.0
2014-Sep-12 11:00N 15°32' W 105°18'4 1.8 29.1
2014-Sep-12 09:00N 15°35' W 105°20'0 0.0 29.1
2014-Sep-12 07:00N 15°35' W 105°20'1 0.2 29.1
2014-Sep-12 04:00N 15°35' W 105°19'1 1.0 29.1
2014-Sep-12 03:00N 15°35' W 105°20'0 0.0 29.1
2014-Sep-12 02:00N 15°35' W 105°20'1 0.6 29.1
2014-Sep-12 01:00N 15°36' W 105°21'2 0.8 29.1
2014-Sep-11 23:00N 15°36' W 105°22'1 1.3 29.2
2014-Sep-11 22:00N 15°37' W 105°21'1 0.2 29.2
2014-Sep-11 17:00N 15°37' W 105°22'1 0.5 29.2
2014-Sep-11 15:00N 15°38' W 105°23'6 1.5 29.2
2014-Sep-11 11:00N 15°41' W 105°28'0 0.0 29.2
2014-Sep-11 10:00N 15°41' W 105°28'0 0.0 29.2
2014-Sep-11 09:00N 15°41' W 105°28'0 0.0 29.2
2014-Sep-11 08:00N 15°41' W 105°28'0 0.0 29.2
2014-Sep-11 05:00N 15°41' W 105°28'   29.3

Dump ship's entire track history